EGLG weather

CLOSED Panshanger Aerodrome
Hertford, England, United Kingdom

Public forecast

Using degrees Celsius for public forecast. Weather courtesy of forecast.io.

Closest aviation weather report (METAR) to Panshanger Aerodrome

Closest report is London Luton Airport, 8.9 nm (16.5 km) WNW. Retrieved 2020/04/10 05:20 UTC (26 minutes ago):

EGGW 100520Z AUTO 11007KT 4900 HZ NCD 07/06 Q1025

Closest aviation forecast (TAF) to Panshanger Aerodrome

Closest forecast is London Luton Airport, 8.9 nm (16.5 km) WNW. Retrieved 2020-04-10 00:00 UTC (6 hours ago):

TAF EGGW 092258Z 1000/1024 12009KT CAVOK TEMPO 1000/1009 8000 PROB30 TEMPO 1021/1024 8000